sensor_id;sensor_type;location;lat;lon;timestamp;temperature;humidity
24035;DHT22;12242;50.952;4.678;2022-08-19T00:02:15;22.00;99.90
24035;DHT22;12242;50.952;4.678;2022-08-19T00:04:42;21.90;99.90
24035;DHT22;12242;50.952;4.678;2022-08-19T00:07:12;21.90;99.90
24035;DHT22;12242;50.952;4.678;2022-08-19T00:09:42;21.90;99.90
24035;DHT22;12242;50.952;4.678;2022-08-19T00:12:17;21.90;99.90
24035;DHT22;12242;50.952;4.678;2022-08-19T00:14:44;21.80;99.90
24035;DHT22;12242;50.952;4.678;2022-08-19T00:17:14;21.90;99.90
24035;DHT22;12242;50.952;4.678;2022-08-19T00:19:42;21.80;99.90
24035;DHT22;12242;50.952;4.678;2022-08-19T00:22:09;21.90;99.90
24035;DHT22;12242;50.952;4.678;2022-08-19T00:24:37;21.80;99.90
24035;DHT22;12242;50.952;4.678;2022-08-19T00:27:05;21.80;99.90
24035;DHT22;12242;50.952;4.678;2022-08-19T00:29:52;21.70;99.90
24035;DHT22;12242;50.952;4.678;2022-08-19T00:32:22;21.80;99.90
24035;DHT22;12242;50.952;4.678;2022-08-19T00:34:59;21.80;99.90
24035;DHT22;12242;50.952;4.678;2022-08-19T00:37:26;21.80;99.90
24035;DHT22;12242;50.952;4.678;2022-08-19T00:39:54;21.70;99.90
24035;DHT22;12242;50.952;4.678;2022-08-19T00:42:24;21.60;99.90
24035;DHT22;12242;50.952;4.678;2022-08-19T00:44:55;21.60;99.90
24035;DHT22;12242;50.952;4.678;2022-08-19T00:47:22;21.50;99.90
24035;DHT22;12242;50.952;4.678;2022-08-19T00:49:54;21.50;99.90
24035;DHT22;12242;50.952;4.678;2022-08-19T00:52:38;21.60;99.90
24035;DHT22;12242;50.952;4.678;2022-08-19T00:55:10;21.60;99.90
24035;DHT22;12242;50.952;4.678;2022-08-19T00:57:43;21.70;99.90
24035;DHT22;12242;50.952;4.678;2022-08-19T01:00:14;21.70;99.90
24035;DHT22;12242;50.952;4.678;2022-08-19T01:02:42;21.70;99.90
24035;DHT22;12242;50.952;4.678;2022-08-19T01:05:14;21.70;99.90
24035;DHT22;12242;50.952;4.678;2022-08-19T01:07:48;21.70;99.90
24035;DHT22;12242;50.952;4.678;2022-08-19T01:10:20;21.70;99.90
24035;DHT22;12242;50.952;4.678;2022-08-19T01:12:52;21.70;99.90
24035;DHT22;12242;50.952;4.678;2022-08-19T01:15:27;21.70;99.90
24035;DHT22;12242;50.952;4.678;2022-08-19T01:17:55;21.60;99.90
24035;DHT22;12242;50.952;4.678;2022-08-19T01:20:23;21.50;99.90
24035;DHT22;12242;50.952;4.678;2022-08-19T01:23:01;21.60;99.90
24035;DHT22;12242;50.952;4.678;2022-08-19T01:25:50;21.60;99.90
24035;DHT22;12242;50.952;4.678;2022-08-19T01:28:24;21.60;99.90
24035;DHT22;12242;50.952;4.678;2022-08-19T01:31:08;21.60;99.90
24035;DHT22;12242;50.952;4.678;2022-08-19T01:33:55;21.60;99.90
24035;DHT22;12242;50.952;4.678;2022-08-19T01:36:32;21.60;99.90
24035;DHT22;12242;50.952;4.678;2022-08-19T01:39:07;21.60;99.90
24035;DHT22;12242;50.952;4.678;2022-08-19T01:41:34;21.60;99.90
24035;DHT22;12242;50.952;4.678;2022-08-19T01:44:06;21.50;99.90
24035;DHT22;12242;50.952;4.678;2022-08-19T01:46:46;21.50;99.90
24035;DHT22;12242;50.952;4.678;2022-08-19T01:49:19;21.50;99.90
24035;DHT22;12242;50.952;4.678;2022-08-19T01:51:47;21.50;99.90
24035;DHT22;12242;50.952;4.678;2022-08-19T01:54:17;21.50;99.90
24035;DHT22;12242;50.952;4.678;2022-08-19T01:57:02;21.50;99.90
24035;DHT22;12242;50.952;4.678;2022-08-19T01:59:30;21.50;99.90
24035;DHT22;12242;50.952;4.678;2022-08-19T02:01:58;21.50;99.90
24035;DHT22;12242;50.952;4.678;2022-08-19T02:04:28;21.50;99.90
24035;DHT22;12242;50.952;4.678;2022-08-19T02:06:56;21.50;99.90
24035;DHT22;12242;50.952;4.678;2022-08-19T02:09:24;21.40;99.90
24035;DHT22;12242;50.952;4.678;2022-08-19T02:11:54;21.30;99.90
24035;DHT22;12242;50.952;4.678;2022-08-19T02:14:21;21.40;99.90
24035;DHT22;12242;50.952;4.678;2022-08-19T02:16:49;21.40;99.90
24035;DHT22;12242;50.952;4.678;2022-08-19T02:19:18;21.30;99.90
24035;DHT22;12242;50.952;4.678;2022-08-19T02:21:46;21.30;99.90
24035;DHT22;12242;50.952;4.678;2022-08-19T02:24:14;21.20;99.90
24035;DHT22;12242;50.952;4.678;2022-08-19T02:26:41;21.20;99.90
24035;DHT22;12242;50.952;4.678;2022-08-19T02:29:08;21.30;99.90
24035;DHT22;12242;50.952;4.678;2022-08-19T02:31:38;21.30;99.90
24035;DHT22;12242;50.952;4.678;2022-08-19T02:34:06;21.30;99.90
24035;DHT22;12242;50.952;4.678;2022-08-19T02:36:33;21.30;99.90
24035;DHT22;12242;50.952;4.678;2022-08-19T02:39:02;21.30;99.90
24035;DHT22;12242;50.952;4.678;2022-08-19T02:41:33;21.30;99.90
24035;DHT22;12242;50.952;4.678;2022-08-19T02:44:03;21.20;99.90
24035;DHT22;12242;50.952;4.678;2022-08-19T02:46:51;21.10;99.90
24035;DHT22;12242;50.952;4.678;2022-08-19T02:49:19;21.00;99.90
24035;DHT22;12242;50.952;4.678;2022-08-19T02:51:47;21.00;99.90
24035;DHT22;12242;50.952;4.678;2022-08-19T02:54:16;21.00;99.90
24035;DHT22;12242;50.952;4.678;2022-08-19T02:56:44;20.90;99.90
24035;DHT22;12242;50.952;4.678;2022-08-19T02:59:12;21.00;99.90
24035;DHT22;12242;50.952;4.678;2022-08-19T03:01:41;21.00;99.90
24035;DHT22;12242;50.952;4.678;2022-08-19T03:04:11;21.00;99.90
24035;DHT22;12242;50.952;4.678;2022-08-19T03:06:44;20.90;99.90
24035;DHT22;12242;50.952;4.678;2022-08-19T03:09:12;20.90;99.90
24035;DHT22;12242;50.952;4.678;2022-08-19T03:11:42;20.90;99.90
24035;DHT22;12242;50.952;4.678;2022-08-19T03:14:10;20.80;99.90
24035;DHT22;12242;50.952;4.678;2022-08-19T03:16:56;20.80;99.90
24035;DHT22;12242;50.952;4.678;2022-08-19T03:19:27;20.70;99.90
24035;DHT22;12242;50.952;4.678;2022-08-19T03:21:54;20.70;99.90
24035;DHT22;12242;50.952;4.678;2022-08-19T03:24:22;20.60;99.90
24035;DHT22;12242;50.952;4.678;2022-08-19T03:26:53;20.70;99.90
24035;DHT22;12242;50.952;4.678;2022-08-19T03:29:28;20.70;99.90
24035;DHT22;12242;50.952;4.678;2022-08-19T03:32:04;20.70;99.90
24035;DHT22;12242;50.952;4.678;2022-08-19T03:34:54;20.60;99.90
24035;DHT22;12242;50.952;4.678;2022-08-19T03:37:22;20.60;99.90
24035;DHT22;12242;50.952;4.678;2022-08-19T03:39:50;20.50;99.90
24035;DHT22;12242;50.952;4.678;2022-08-19T03:42:17;20.50;99.90
24035;DHT22;12242;50.952;4.678;2022-08-19T03:45:07;20.50;99.90
24035;DHT22;12242;50.952;4.678;2022-08-19T03:47:38;20.40;99.90
24035;DHT22;12242;50.952;4.678;2022-08-19T03:50:05;20.40;99.90
24035;DHT22;12242;50.952;4.678;2022-08-19T03:52:33;20.50;99.90
24035;DHT22;12242;50.952;4.678;2022-08-19T03:55:01;20.50;99.90
24035;DHT22;12242;50.952;4.678;2022-08-19T03:57:28;20.50;99.90
24035;DHT22;12242;50.952;4.678;2022-08-19T04:00:01;20.50;99.90
24035;DHT22;12242;50.952;4.678;2022-08-19T04:02:41;20.60;99.90
24035;DHT22;12242;50.952;4.678;2022-08-19T04:05:28;20.50;99.90
24035;DHT22;12242;50.952;4.678;2022-08-19T04:07:55;20.40;99.90
24035;DHT22;12242;50.952;4.678;2022-08-19T04:10:27;20.40;99.90
24035;DHT22;12242;50.952;4.678;2022-08-19T04:12:55;20.40;99.90
24035;DHT22;12242;50.952;4.678;2022-08-19T04:15:22;20.40;99.90
24035;DHT22;12242;50.952;4.678;2022-08-19T04:17:51;20.40;99.90
24035;DHT22;12242;50.952;4.678;2022-08-19T04:20:22;20.40;99.90
24035;DHT22;12242;50.952;4.678;2022-08-19T04:22:49;20.40;99.90
24035;DHT22;12242;50.952;4.678;2022-08-19T04:25:16;20.40;99.90
24035;DHT22;12242;50.952;4.678;2022-08-19T04:27:43;20.40;99.90
24035;DHT22;12242;50.952;4.678;2022-08-19T04:30:14;20.30;99.90
24035;DHT22;12242;50.952;4.678;2022-08-19T04:32:41;20.30;99.90
24035;DHT22;12242;50.952;4.678;2022-08-19T04:35:10;20.30;99.90
24035;DHT22;12242;50.952;4.678;2022-08-19T04:37:44;20.30;99.90
24035;DHT22;12242;50.952;4.678;2022-08-19T04:40:14;20.30;99.90
24035;DHT22;12242;50.952;4.678;2022-08-19T04:43:00;20.30;99.90
24035;DHT22;12242;50.952;4.678;2022-08-19T04:45:28;20.30;99.90
24035;DHT22;12242;50.952;4.678;2022-08-19T04:48:05;20.30;99.90
24035;DHT22;12242;50.952;4.678;2022-08-19T04:50:57;20.30;99.90
24035;DHT22;12242;50.952;4.678;2022-08-19T04:53:28;20.30;99.90
24035;DHT22;12242;50.952;4.678;2022-08-19T04:56:12;20.30;99.90
24035;DHT22;12242;50.952;4.678;2022-08-19T04:58:44;20.30;99.90
24035;DHT22;12242;50.952;4.678;2022-08-19T05:01:14;20.20;99.90
24035;DHT22;12242;50.952;4.678;2022-08-19T05:03:44;20.20;99.90
24035;DHT22;12242;50.952;4.678;2022-08-19T05:06:14;20.20;99.90
24035;DHT22;12242;50.952;4.678;2022-08-19T05:08:42;20.20;99.90
24035;DHT22;12242;50.952;4.678;2022-08-19T05:11:13;20.20;99.90
24035;DHT22;12242;50.952;4.678;2022-08-19T05:13:44;20.20;99.90
24035;DHT22;12242;50.952;4.678;2022-08-19T05:16:12;20.20;99.90
24035;DHT22;12242;50.952;4.678;2022-08-19T05:18:40;20.20;99.90
24035;DHT22;12242;50.952;4.678;2022-08-19T05:21:27;20.30;99.90
24035;DHT22;12242;50.952;4.678;2022-08-19T05:24:13;20.20;99.90
24035;DHT22;12242;50.952;4.678;2022-08-19T05:26:44;20.20;99.90
24035;DHT22;12242;50.952;4.678;2022-08-19T05:29:18;20.30;99.90
24035;DHT22;12242;50.952;4.678;2022-08-19T05:31:48;20.20;99.90
24035;DHT22;12242;50.952;4.678;2022-08-19T05:34:17;20.30;99.90
24035;DHT22;12242;50.952;4.678;2022-08-19T05:36:49;20.30;99.90
24035;DHT22;12242;50.952;4.678;2022-08-19T05:39:19;20.30;99.90
24035;DHT22;12242;50.952;4.678;2022-08-19T05:41:55;20.20;99.90
24035;DHT22;12242;50.952;4.678;2022-08-19T05:44:30;20.40;99.90
24035;DHT22;12242;50.952;4.678;2022-08-19T05:46:59;20.40;99.90
24035;DHT22;12242;50.952;4.678;2022-08-19T05:49:28;20.40;99.90
24035;DHT22;12242;50.952;4.678;2022-08-19T05:51:56;20.50;99.90
24035;DHT22;12242;50.952;4.678;2022-08-19T05:54:23;20.50;99.90
24035;DHT22;12242;50.952;4.678;2022-08-19T05:56:52;20.50;99.90
24035;DHT22;12242;50.952;4.678;2022-08-19T05:59:20;20.60;99.90
24035;DHT22;12242;50.952;4.678;2022-08-19T06:01:52;20.60;99.90
24035;DHT22;12242;50.952;4.678;2022-08-19T06:04:26;20.70;99.90
24035;DHT22;12242;50.952;4.678;2022-08-19T06:06:59;20.80;99.90
24035;DHT22;12242;50.952;4.678;2022-08-19T06:09:39;20.90;99.90
24035;DHT22;12242;50.952;4.678;2022-08-19T06:12:09;20.80;99.90
24035;DHT22;12242;50.952;4.678;2022-08-19T06:14:37;21.00;99.90
24035;DHT22;12242;50.952;4.678;2022-08-19T06:17:08;21.00;99.90
24035;DHT22;12242;50.952;4.678;2022-08-19T06:19:35;21.00;99.90
24035;DHT22;12242;50.952;4.678;2022-08-19T06:22:07;21.10;99.90
24035;DHT22;12242;50.952;4.678;2022-08-19T06:24:35;21.10;99.90
24035;DHT22;12242;50.952;4.678;2022-08-19T06:27:03;21.10;99.90
24035;DHT22;12242;50.952;4.678;2022-08-19T06:29:34;21.10;99.90
24035;DHT22;12242;50.952;4.678;2022-08-19T06:32:03;21.10;99.90
24035;DHT22;12242;50.952;4.678;2022-08-19T06:34:35;21.20;99.90
24035;DHT22;12242;50.952;4.678;2022-08-19T06:37:04;21.40;99.90
24035;DHT22;12242;50.952;4.678;2022-08-19T06:39:39;21.50;99.90
24035;DHT22;12242;50.952;4.678;2022-08-19T06:42:08;21.70;99.90
24035;DHT22;12242;50.952;4.678;2022-08-19T06:44:41;21.70;99.90
24035;DHT22;12242;50.952;4.678;2022-08-19T06:47:21;21.50;99.90
24035;DHT22;12242;50.952;4.678;2022-08-19T06:49:56;21.50;99.90
24035;DHT22;12242;50.952;4.678;2022-08-19T06:52:30;21.50;99.90
24035;DHT22;12242;50.952;4.678;2022-08-19T06:55:02;21.50;99.90
24035;DHT22;12242;50.952;4.678;2022-08-19T06:57:33;21.50;99.90
24035;DHT22;12242;50.952;4.678;2022-08-19T07:00:06;21.50;99.90
24035;DHT22;12242;50.952;4.678;2022-08-19T07:02:43;21.60;99.90
24035;DHT22;12242;50.952;4.678;2022-08-19T07:05:22;21.60;99.90
24035;DHT22;12242;50.952;4.678;2022-08-19T07:07:49;21.60;99.90
24035;DHT22;12242;50.952;4.678;2022-08-19T07:10:21;21.60;99.90
24035;DHT22;12242;50.952;4.678;2022-08-19T07:12:51;21.80;99.90
24035;DHT22;12242;50.952;4.678;2022-08-19T07:15:19;22.10;99.90
24035;DHT22;12242;50.952;4.678;2022-08-19T07:17:48;22.40;99.90
24035;DHT22;12242;50.952;4.678;2022-08-19T07:20:19;22.70;99.90
24035;DHT22;12242;50.952;4.678;2022-08-19T07:22:46;23.10;99.90
24035;DHT22;12242;50.952;4.678;2022-08-19T07:25:14;23.50;99.90
24035;DHT22;12242;50.952;4.678;2022-08-19T07:27:43;23.90;99.90
24035;DHT22;12242;50.952;4.678;2022-08-19T07:30:20;24.20;99.90
24035;DHT22;12242;50.952;4.678;2022-08-19T07:32:52;24.30;99.90
24035;DHT22;12242;50.952;4.678;2022-08-19T07:35:24;24.30;99.90
24035;DHT22;12242;50.952;4.678;2022-08-19T07:37:57;24.20;99.90
24035;DHT22;12242;50.952;4.678;2022-08-19T07:40:25;24.10;99.90
24035;DHT22;12242;50.952;4.678;2022-08-19T07:42:55;24.00;99.90
24035;DHT22;12242;50.952;4.678;2022-08-19T07:45:24;24.10;99.90
24035;DHT22;12242;50.952;4.678;2022-08-19T07:47:55;24.30;99.90
24035;DHT22;12242;50.952;4.678;2022-08-19T07:50:23;24.30;99.90
24035;DHT22;12242;50.952;4.678;2022-08-19T07:52:50;24.60;99.90
24035;DHT22;12242;50.952;4.678;2022-08-19T07:55:22;24.90;99.90
24035;DHT22;12242;50.952;4.678;2022-08-19T07:58:12;25.30;99.90
24035;DHT22;12242;50.952;4.678;2022-08-19T08:00:41;25.60;99.90
24035;DHT22;12242;50.952;4.678;2022-08-19T08:03:10;26.10;99.90
24035;DHT22;12242;50.952;4.678;2022-08-19T08:05:37;26.40;99.90
24035;DHT22;12242;50.952;4.678;2022-08-19T08:08:23;26.20;99.90
24035;DHT22;12242;50.952;4.678;2022-08-19T08:11:12;26.00;99.90
24035;DHT22;12242;50.952;4.678;2022-08-19T08:13:42;26.00;99.90
24035;DHT22;12242;50.952;4.678;2022-08-19T08:16:11;26.00;99.90
24035;DHT22;12242;50.952;4.678;2022-08-19T08:18:40;26.70;99.90
24035;DHT22;12242;50.952;4.678;2022-08-19T08:21:16;27.00;99.90
24035;DHT22;12242;50.952;4.678;2022-08-19T08:23:44;27.40;99.90
24035;DHT22;12242;50.952;4.678;2022-08-19T08:26:17;27.50;99.90
24035;DHT22;12242;50.952;4.678;2022-08-19T08:28:47;27.10;99.50
24035;DHT22;12242;50.952;4.678;2022-08-19T08:31:15;26.90;99.90
24035;DHT22;12242;50.952;4.678;2022-08-19T08:33:45;27.00;99.90
24035;DHT22;12242;50.952;4.678;2022-08-19T08:36:13;27.30;99.90
24035;DHT22;12242;50.952;4.678;2022-08-19T08:38:42;27.50;99.90
24035;DHT22;12242;50.952;4.678;2022-08-19T08:41:33;27.30;99.10
24035;DHT22;12242;50.952;4.678;2022-08-19T08:44:03;26.80;99.40
24035;DHT22;12242;50.952;4.678;2022-08-19T08:46:42;26.40;99.90
24035;DHT22;12242;50.952;4.678;2022-08-19T08:51:58;26.30;99.90
24035;DHT22;12242;50.952;4.678;2022-08-19T08:54:46;26.20;99.90
24035;DHT22;12242;50.952;4.678;2022-08-19T08:57:29;26.10;99.90
24035;DHT22;12242;50.952;4.678;2022-08-19T09:00:20;27.00;99.90
24035;DHT22;12242;50.952;4.678;2022-08-19T09:02:48;27.60;99.90
24035;DHT22;12242;50.952;4.678;2022-08-19T09:05:18;28.00;99.90
24035;DHT22;12242;50.952;4.678;2022-08-19T09:08:02;27.80;98.20
24035;DHT22;12242;50.952;4.678;2022-08-19T09:10:54;27.40;98.30
24035;DHT22;12242;50.952;4.678;2022-08-19T09:14:02;26.80;99.10
24035;DHT22;12242;50.952;4.678;2022-08-19T09:16:32;26.50;99.90
24035;DHT22;12242;50.952;4.678;2022-08-19T09:19:05;26.10;99.90
24035;DHT22;12242;50.952;4.678;2022-08-19T09:21:35;25.70;99.90
24035;DHT22;12242;50.952;4.678;2022-08-19T09:24:08;25.60;99.90
24035;DHT22;12242;50.952;4.678;2022-08-19T09:26:36;25.50;99.90
24035;DHT22;12242;50.952;4.678;2022-08-19T09:29:19;25.20;99.90
24035;DHT22;12242;50.952;4.678;2022-08-19T09:31:49;25.00;99.90
24035;DHT22;12242;50.952;4.678;2022-08-19T09:34:17;24.90;99.90
24035;DHT22;12242;50.952;4.678;2022-08-19T09:36:49;24.70;99.90
24035;DHT22;12242;50.952;4.678;2022-08-19T09:39:22;24.70;99.90
24035;DHT22;12242;50.952;4.678;2022-08-19T09:41:52;24.60;99.90
24035;DHT22;12242;50.952;4.678;2022-08-19T09:44:19;24.60;99.90
24035;DHT22;12242;50.952;4.678;2022-08-19T09:46:48;24.60;99.90
24035;DHT22;12242;50.952;4.678;2022-08-19T09:49:17;24.70;99.90
24035;DHT22;12242;50.952;4.678;2022-08-19T09:51:45;24.80;99.90
24035;DHT22;12242;50.952;4.678;2022-08-19T09:54:20;24.70;99.90
24035;DHT22;12242;50.952;4.678;2022-08-19T09:56:54;24.80;99.90
24035;DHT22;12242;50.952;4.678;2022-08-19T09:59:24;24.90;99.90
24035;DHT22;12242;50.952;4.678;2022-08-19T10:01:52;24.90;99.90
24035;DHT22;12242;50.952;4.678;2022-08-19T10:04:20;24.90;99.90
24035;DHT22;12242;50.952;4.678;2022-08-19T10:07:10;24.90;99.90
24035;DHT22;12242;50.952;4.678;2022-08-19T10:09:39;24.90;99.90
24035;DHT22;12242;50.952;4.678;2022-08-19T10:12:08;24.80;99.90
24035;DHT22;12242;50.952;4.678;2022-08-19T10:14:43;24.90;99.90
24035;DHT22;12242;50.952;4.678;2022-08-19T10:17:11;24.90;99.90
24035;DHT22;12242;50.952;4.678;2022-08-19T10:19:46;25.00;99.90
24035;DHT22;12242;50.952;4.678;2022-08-19T10:22:24;25.00;99.90
24035;DHT22;12242;50.952;4.678;2022-08-19T10:24:53;25.00;99.90
24035;DHT22;12242;50.952;4.678;2022-08-19T10:27:20;25.00;99.90
24035;DHT22;12242;50.952;4.678;2022-08-19T10:29:52;25.10;99.90
24035;DHT22;12242;50.952;4.678;2022-08-19T10:32:20;25.20;99.90
24035;DHT22;12242;50.952;4.678;2022-08-19T10:35:01;25.30;99.90
24035;DHT22;12242;50.952;4.678;2022-08-19T10:37:36;25.40;99.90
24035;DHT22;12242;50.952;4.678;2022-08-19T10:40:25;25.60;99.90
24035;DHT22;12242;50.952;4.678;2022-08-19T10:42:54;25.70;99.90
24035;DHT22;12242;50.952;4.678;2022-08-19T10:45:23;25.90;99.90
24035;DHT22;12242;50.952;4.678;2022-08-19T10:47:54;26.10;99.90
24035;DHT22;12242;50.952;4.678;2022-08-19T10:50:24;26.40;99.90
24035;DHT22;12242;50.952;4.678;2022-08-19T10:53:10;26.40;99.90
24035;DHT22;12242;50.952;4.678;2022-08-19T10:55:38;26.40;99.90
24035;DHT22;12242;50.952;4.678;2022-08-19T10:58:24;26.30;99.90
24035;DHT22;12242;50.952;4.678;2022-08-19T11:01:00;26.20;99.90
24035;DHT22;12242;50.952;4.678;2022-08-19T11:03:28;26.30;99.90
24035;DHT22;12242;50.952;4.678;2022-08-19T11:06:04;26.60;99.90
24035;DHT22;12242;50.952;4.678;2022-08-19T11:08:33;26.80;99.90
24035;DHT22;12242;50.952;4.678;2022-08-19T11:11:01;26.90;99.90
24035;DHT22;12242;50.952;4.678;2022-08-19T11:13:35;27.20;99.90
24035;DHT22;12242;50.952;4.678;2022-08-19T11:16:12;27.10;99.90
24035;DHT22;12242;50.952;4.678;2022-08-19T11:18:45;27.20;99.90
24035;DHT22;12242;50.952;4.678;2022-08-19T11:21:26;27.30;99.90
24035;DHT22;12242;50.952;4.678;2022-08-19T11:23:57;27.30;99.90
24035;DHT22;12242;50.952;4.678;2022-08-19T11:26:28;27.10;99.90
24035;DHT22;12242;50.952;4.678;2022-08-19T11:28:56;26.80;99.90
24035;DHT22;12242;50.952;4.678;2022-08-19T11:31:30;26.60;99.90
24035;DHT22;12242;50.952;4.678;2022-08-19T11:34:00;26.40;99.90
24035;DHT22;12242;50.952;4.678;2022-08-19T11:36:29;26.40;99.90
24035;DHT22;12242;50.952;4.678;2022-08-19T11:39:00;26.30;99.90
24035;DHT22;12242;50.952;4.678;2022-08-19T11:41:27;26.10;99.90
24035;DHT22;12242;50.952;4.678;2022-08-19T11:43:55;26.10;99.90
24035;DHT22;12242;50.952;4.678;2022-08-19T11:46:24;26.00;99.90
24035;DHT22;12242;50.952;4.678;2022-08-19T11:48:52;25.80;99.90
24035;DHT22;12242;50.952;4.678;2022-08-19T11:51:21;25.60;99.90
24035;DHT22;12242;50.952;4.678;2022-08-19T11:53:52;25.50;99.90
24035;DHT22;12242;50.952;4.678;2022-08-19T11:56:21;25.40;99.90
24035;DHT22;12242;50.952;4.678;2022-08-19T11:58:49;25.30;99.90
24035;DHT22;12242;50.952;4.678;2022-08-19T12:01:18;25.10;99.90
24035;DHT22;12242;50.952;4.678;2022-08-19T12:03:50;25.00;99.90
24035;DHT22;12242;50.952;4.678;2022-08-19T12:06:25;24.90;99.90
24035;DHT22;12242;50.952;4.678;2022-08-19T12:09:00;24.80;99.90
24035;DHT22;12242;50.952;4.678;2022-08-19T12:11:27;24.70;99.90
24035;DHT22;12242;50.952;4.678;2022-08-19T12:14:00;24.70;99.90
24035;DHT22;12242;50.952;4.678;2022-08-19T12:16:29;24.80;99.90
24035;DHT22;12242;50.952;4.678;2022-08-19T12:18:59;25.10;99.90
24035;DHT22;12242;50.952;4.678;2022-08-19T12:21:35;25.30;99.90
24035;DHT22;12242;50.952;4.678;2022-08-19T12:24:06;25.60;99.90
24035;DHT22;12242;50.952;4.678;2022-08-19T12:26:36;25.90;99.90
24035;DHT22;12242;50.952;4.678;2022-08-19T12:29:21;26.00;99.90
24035;DHT22;12242;50.952;4.678;2022-08-19T12:31:59;26.30;99.90
24035;DHT22;12242;50.952;4.678;2022-08-19T12:34:32;26.40;99.90
24035;DHT22;12242;50.952;4.678;2022-08-19T12:37:02;26.40;99.90
24035;DHT22;12242;50.952;4.678;2022-08-19T12:39:33;26.30;99.90
24035;DHT22;12242;50.952;4.678;2022-08-19T12:42:01;26.40;99.90
24035;DHT22;12242;50.952;4.678;2022-08-19T12:44:29;26.40;99.90
24035;DHT22;12242;50.952;4.678;2022-08-19T12:47:00;26.40;99.90
24035;DHT22;12242;50.952;4.678;2022-08-19T12:49:30;26.40;99.90
24035;DHT22;12242;50.952;4.678;2022-08-19T12:52:23;26.50;99.90
24035;DHT22;12242;50.952;4.678;2022-08-19T12:54:54;26.70;99.90
24035;DHT22;12242;50.952;4.678;2022-08-19T12:57:23;26.70;99.90
24035;DHT22;12242;50.952;4.678;2022-08-19T13:00:20;26.90;99.90
24035;DHT22;12242;50.952;4.678;2022-08-19T13:02:51;27.30;99.90
24035;DHT22;12242;50.952;4.678;2022-08-19T13:05:22;27.90;99.90
24035;DHT22;12242;50.952;4.678;2022-08-19T13:07:51;28.10;99.90
24035;DHT22;12242;50.952;4.678;2022-08-19T13:10:20;28.30;99.90
24035;DHT22;12242;50.952;4.678;2022-08-19T13:12:50;28.70;99.90
24035;DHT22;12242;50.952;4.678;2022-08-19T13:15:19;28.70;98.30
24035;DHT22;12242;50.952;4.678;2022-08-19T13:17:52;28.70;98.10
24035;DHT22;12242;50.952;4.678;2022-08-19T13:20:20;28.60;98.00
24035;DHT22;12242;50.952;4.678;2022-08-19T13:22:48;28.50;97.80
24035;DHT22;12242;50.952;4.678;2022-08-19T13:25:19;28.60;97.70
24035;DHT22;12242;50.952;4.678;2022-08-19T13:27:48;28.60;97.30
24035;DHT22;12242;50.952;4.678;2022-08-19T13:30:18;28.40;97.30
24035;DHT22;12242;50.952;4.678;2022-08-19T13:33:05;28.20;97.30
24035;DHT22;12242;50.952;4.678;2022-08-19T13:35:49;28.10;97.40
24035;DHT22;12242;50.952;4.678;2022-08-19T13:38:27;27.90;97.00
24035;DHT22;12242;50.952;4.678;2022-08-19T13:40:55;27.60;98.10
24035;DHT22;12242;50.952;4.678;2022-08-19T13:43:28;27.40;98.00
24035;DHT22;12242;50.952;4.678;2022-08-19T13:46:07;27.10;99.00
24035;DHT22;12242;50.952;4.678;2022-08-19T13:48:35;27.00;99.40
24035;DHT22;12242;50.952;4.678;2022-08-19T13:51:05;27.30;99.90
24035;DHT22;12242;50.952;4.678;2022-08-19T13:53:32;27.60;99.90
24035;DHT22;12242;50.952;4.678;2022-08-19T13:56:09;28.10;99.90
24035;DHT22;12242;50.952;4.678;2022-08-19T13:58:37;28.70;98.00
24035;DHT22;12242;50.952;4.678;2022-08-19T14:01:08;29.30;96.90
24035;DHT22;12242;50.952;4.678;2022-08-19T14:03:38;29.10;95.90
24035;DHT22;12242;50.952;4.678;2022-08-19T14:06:10;29.00;95.80
24035;DHT22;12242;50.952;4.678;2022-08-19T14:08:42;28.80;96.10
24035;DHT22;12242;50.952;4.678;2022-08-19T14:11:12;28.60;96.20
24035;DHT22;12242;50.952;4.678;2022-08-19T14:13:40;28.60;95.90
24035;DHT22;12242;50.952;4.678;2022-08-19T14:16:09;28.80;96.30
24035;DHT22;12242;50.952;4.678;2022-08-19T14:18:38;29.10;96.10
24035;DHT22;12242;50.952;4.678;2022-08-19T14:21:17;29.10;95.10
24035;DHT22;12242;50.952;4.678;2022-08-19T14:23:47;29.10;95.20
24035;DHT22;12242;50.952;4.678;2022-08-19T14:26:16;29.10;95.40
24035;DHT22;12242;50.952;4.678;2022-08-19T14:28:44;29.10;95.00
24035;DHT22;12242;50.952;4.678;2022-08-19T14:31:13;28.90;94.40
24035;DHT22;12242;50.952;4.678;2022-08-19T14:33:43;28.60;94.50
24035;DHT22;12242;50.952;4.678;2022-08-19T14:36:15;28.40;95.80
24035;DHT22;12242;50.952;4.678;2022-08-19T14:38:43;28.40;95.50
24035;DHT22;12242;50.952;4.678;2022-08-19T14:41:15;28.30;95.50
24035;DHT22;12242;50.952;4.678;2022-08-19T14:43:49;28.10;95.60
24035;DHT22;12242;50.952;4.678;2022-08-19T14:46:20;27.90;95.80
24035;DHT22;12242;50.952;4.678;2022-08-19T14:48:49;27.80;96.00
24035;DHT22;12242;50.952;4.678;2022-08-19T14:51:22;27.70;96.30
24035;DHT22;12242;50.952;4.678;2022-08-19T14:53:53;27.60;96.00
24035;DHT22;12242;50.952;4.678;2022-08-19T14:56:26;27.30;96.40
24035;DHT22;12242;50.952;4.678;2022-08-19T14:58:54;27.10;97.80
24035;DHT22;12242;50.952;4.678;2022-08-19T15:01:22;26.80;99.90
24035;DHT22;12242;50.952;4.678;2022-08-19T15:03:50;26.60;99.90
24035;DHT22;12242;50.952;4.678;2022-08-19T15:06:20;26.40;99.90
24035;DHT22;12242;50.952;4.678;2022-08-19T15:08:49;26.20;99.90
24035;DHT22;12242;50.952;4.678;2022-08-19T15:11:20;26.00;99.90
24035;DHT22;12242;50.952;4.678;2022-08-19T15:13:49;25.90;99.90
24035;DHT22;12242;50.952;4.678;2022-08-19T15:16:20;25.80;99.90
24035;DHT22;12242;50.952;4.678;2022-08-19T15:18:55;25.90;99.90
24035;DHT22;12242;50.952;4.678;2022-08-19T15:21:25;25.90;99.90
24035;DHT22;12242;50.952;4.678;2022-08-19T15:23:55;25.90;99.90
24035;DHT22;12242;50.952;4.678;2022-08-19T15:26:23;25.90;99.90
24035;DHT22;12242;50.952;4.678;2022-08-19T15:28:54;25.90;99.90
24035;DHT22;12242;50.952;4.678;2022-08-19T15:31:23;26.00;99.90
24035;DHT22;12242;50.952;4.678;2022-08-19T15:33:56;26.00;99.90
24035;DHT22;12242;50.952;4.678;2022-08-19T15:36:27;25.90;99.90
24035;DHT22;12242;50.952;4.678;2022-08-19T15:38:55;25.90;99.90
24035;DHT22;12242;50.952;4.678;2022-08-19T15:41:28;25.90;99.90
24035;DHT22;12242;50.952;4.678;2022-08-19T15:44:05;25.80;99.90
24035;DHT22;12242;50.952;4.678;2022-08-19T15:46:38;25.80;99.90
24035;DHT22;12242;50.952;4.678;2022-08-19T15:49:05;25.80;99.90
24035;DHT22;12242;50.952;4.678;2022-08-19T15:51:36;25.80;99.90
24035;DHT22;12242;50.952;4.678;2022-08-19T15:54:08;25.80;99.90
24035;DHT22;12242;50.952;4.678;2022-08-19T15:56:37;25.80;99.90
24035;DHT22;12242;50.952;4.678;2022-08-19T15:59:26;25.90;99.90
24035;DHT22;12242;50.952;4.678;2022-08-19T16:02:17;26.00;99.90
24035;DHT22;12242;50.952;4.678;2022-08-19T16:05:07;26.00;99.90